Time;durP1;ratioP1;P1;durP2;ratioP2;P2;SDS_P1;SDS_P2;PMS_P1;PMS_P2;Temp;Humidity;BMP_temperature;BMP_pressure;BME280_temperature;BME280_humidity;BME280_pressure;Samples;Min_cycle;Max_cycle;Signal;HPM_P1;HPM_P2
2023/02/14 00:01:58;;;;;;;0.50;0.50;;;;;;;4.15;92.23;102412.78;5047708;28;20089;-71
2023/02/14 00:04:23;;;;;;;0.50;0.50;;;;;;;4.11;92.20;102404.81;5048145;28;20077;-72
2023/02/14 00:06:48;;;;;;;0.50;0.50;;;;;;;4.15;92.06;102411.88;5048297;28;20029;-72
2023/02/14 00:09:16;;;;;;;0.43;0.43;;;;;;;4.13;92.09;102408.34;5047550;28;20028;-72
2023/02/14 00:11:42;;;;;;;0.60;0.60;;;;;;;4.08;92.22;102398.72;5063206;28;20077;-71
2023/02/14 00:16:53;;;;;;;0.60;0.60;;;;;;;4.06;92.09;102407.16;5047865;28;20079;-71
2023/02/14 00:19:20;;;;;;;0.57;0.57;;;;;;;4.06;91.98;102404.56;5062905;28;20029;-71
2023/02/14 00:21:46;;;;;;;0.50;0.50;;;;;;;3.87;91.97;102384.75;5046222;28;20029;-71
2023/02/14 00:24:14;;;;;;;0.93;0.93;;;;;;;3.96;91.97;102398.97;5047454;28;20033;-71
2023/02/14 00:26:40;;;;;;;0.50;0.50;;;;;;;3.97;91.86;102402.44;5047627;28;20036;-70
2023/02/14 00:29:07;;;;;;;5.97;3.58;;;;;;;3.96;91.86;102403.25;5047555;28;20029;-71
2023/02/14 00:31:34;;;;;;;0.50;0.50;;;;;;;3.94;91.84;102399.72;5047402;28;20397;-71
2023/02/14 00:34:00;;;;;;;0.95;0.95;;;;;;;3.90;91.82;102398.66;5047506;28;20056;-71
2023/02/14 00:36:25;;;;;;;0.60;0.60;;;;;;;3.80;91.71;102392.16;5047284;28;20029;-71
2023/02/14 00:38:51;;;;;;;0.60;0.60;;;;;;;3.84;91.52;102406.06;5062041;28;20053;-71
2023/02/14 00:41:19;;;;;;;0.60;0.60;;;;;;;3.84;91.33;102408.63;5047445;28;20033;-71
2023/02/14 00:43:50;;;;;;;0.50;0.50;;;;;;;3.76;91.29;102402.19;5047258;28;20545;-71
2023/02/14 00:46:17;;;;;;;0.50;0.50;;;;;;;3.76;91.12;102408.22;5047285;28;20029;-71
2023/02/14 00:48:43;;;;;;;0.43;0.43;;;;;;;3.73;90.83;102402.94;5047358;28;20026;-71
2023/02/14 00:51:08;;;;;;;0.50;0.50;;;;;;;3.67;90.88;102400.94;5047251;28;20026;-71
2023/02/14 00:53:35;;;;;;;0.50;0.50;;;;;;;3.65;90.92;102394.81;5046788;28;20079;-71
2023/02/14 00:56:00;;;;;;;0.70;0.70;;;;;;;3.55;91.12;102396.03;5062484;28;20025;-70
2023/02/14 00:58:26;;;;;;;0.40;0.40;;;;;;;3.56;90.95;102400.34;5046944;28;20045;-71
2023/02/14 01:00:52;;;;;;;0.50;0.50;;;;;;;3.50;91.12;102394.03;5046717;28;20026;-70
2023/02/14 01:03:17;;;;;;;0.50;0.50;;;;;;;3.46;91.00;102396.44;5046837;28;20279;-71
2023/02/14 01:05:43;;;;;;;0.45;0.45;;;;;;;3.43;90.75;102393.69;5046961;28;20056;-71
2023/02/14 01:08:08;;;;;;;0.50;0.50;;;;;;;3.41;90.81;102403.00;5061951;28;20049;-71
2023/02/14 01:10:37;;;;;;;0.50;0.50;;;;;;;3.37;91.20;102395.06;5046474;28;20030;-70
2023/02/14 01:13:03;;;;;;;1.80;1.70;;;;;;;3.33;90.96;102396.56;5046645;28;20033;-70
2023/02/14 01:15:30;;;;;;;0.50;0.50;;;;;;;3.31;90.82;102399.03;5045341;28;20076;-71
2023/02/14 01:17:57;;;;;;;0.50;0.50;;;;;;;3.30;90.82;102394.72;5046532;28;20096;-70
2023/02/14 01:20:23;;;;;;;0.50;0.50;;;;;;;3.26;90.55;102392.78;5046493;28;20049;-70
2023/02/14 01:22:48;;;;;;;2.53;2.42;;;;;;;3.28;90.72;102401.44;5046379;28;20037;-71
2023/02/14 01:25:14;;;;;;;0.60;0.60;;;;;;;3.28;90.27;102401.44;5046363;28;20027;-70
2023/02/14 01:27:39;;;;;;;3.78;1.60;;;;;;;3.25;90.32;102392.69;5046457;28;20031;-72
2023/02/14 01:30:06;;;;;;;0.50;0.50;;;;;;;3.23;90.61;102405.44;5046287;28;20045;-71
2023/02/14 01:32:33;;;;;;;0.60;0.60;;;;;;;3.21;90.32;102400.22;5046284;28;20489;-71
2023/02/14 01:34:58;;;;;;;0.50;0.50;;;;;;;3.21;90.31;102395.09;5061582;28;20035;-71
2023/02/14 01:37:24;;;;;;;0.50;0.50;;;;;;;3.16;90.31;102396.56;5046243;28;20061;-72
2023/02/14 01:39:49;;;;;;;0.50;0.50;;;;;;;3.12;90.25;102398.84;5061048;28;20064;-72
2023/02/14 01:42:15;;;;;;;0.50;0.50;;;;;;;3.13;90.31;102400.63;5045897;28;20040;-70
2023/02/14 01:44:43;;;;;;;0.77;0.77;;;;;;;3.10;90.05;102407.34;5044787;28;20018;-71
2023/02/14 01:47:10;;;;;;;0.57;0.57;;;;;;;3.06;90.01;102397.72;5045937;28;20021;-71
2023/02/14 01:49:42;;;;;;;0.57;0.57;;;;;;;3.06;90.12;102414.78;5045716;28;20033;-71
2023/02/14 01:52:12;;;;;;;0.50;0.50;;;;;;;3.01;90.00;102404.28;5046085;28;20111;-70
2023/02/14 01:54:43;;;;;;;0.50;0.50;;;;;;;2.97;90.15;102405.78;5045975;28;20021;-71
2023/02/14 01:57:12;;;;;;;0.50;0.50;;;;;;;2.95;90.34;102402.25;5045943;28;20021;-71
2023/02/14 01:59:44;;;;;;;0.40;0.40;;;;;;;2.93;90.41;102397.81;5045809;28;20021;-71
2023/02/14 02:02:10;;;;;;;0.80;0.80;;;;;;;2.89;90.22;102395.91;5044349;28;20017;-72
2023/02/14 02:04:42;;;;;;;0.50;0.50;;;;;;;2.89;90.49;102406.16;5045893;28;20036;-70
2023/02/14 02:07:12;;;;;;;0.40;0.40;;;;;;;2.83;90.30;102397.31;5045725;28;20094;-72
2023/02/14 02:10:02;;;;;;;0.50;0.50;;;;;;;2.88;90.27;102401.81;5045652;28;20028;-71
2023/02/14 02:12:27;;;;;;;0.60;0.60;;;;;;;2.84;90.24;102408.47;5060734;28;20108;-71
2023/02/14 02:14:55;;;;;;;0.50;0.50;;;;;;;2.83;90.18;102411.81;5045576;28;20431;-72
2023/02/14 02:17:35;;;;;;;4.10;3.83;;;;;;;2.79;90.16;102415.91;5045407;28;20109;-72
2023/02/14 02:20:25;;;;;;;0.50;0.50;;;;;;;2.79;90.24;102412.47;5045321;28;20021;-72
2023/02/14 02:23:13;;;;;;;0.93;0.93;;;;;;;2.77;90.41;102407.25;5044708;28;20026;-72
2023/02/14 02:26:07;;;;;;;0.60;0.60;;;;;;;2.71;90.27;102410.34;5013714;28;20045;-73
2023/02/14 02:28:52;;;;;;;0.60;0.60;;;;;;;2.71;90.18;102397.53;5045123;28;20031;-73
2023/02/14 02:31:55;;;;;;;0.60;0.60;;;;;;;2.70;90.25;102400.88;5060336;28;20076;-71
2023/02/14 02:35:18;;;;;;;0.95;0.95;;;;;;;2.70;90.15;102405.13;5044921;28;20035;-72
2023/02/14 02:37:59;;;;;;;;;;;;;;;2.64;90.11;102404.75;4984038;28;20039;-73
2023/02/14 02:40:30;;;;;;;0.60;0.60;;;;;;;2.56;90.10;102399.19;4983364;28;19929;-72
2023/02/14 02:43:17;;;;;;;0.70;0.70;;;;;;;2.55;90.26;102394.88;4983477;28;20046;-72
2023/02/14 02:55:20;;;;;;;0.57;0.57;;;;;;;2.46;90.38;102406.38;4925833;29;20143;-72
2023/02/14 02:57:48;;;;;;;0.50;0.50;;;;;;;2.41;90.36;102394.97;4925797;29;20032;-73
2023/02/14 03:00:16;;;;;;;0.60;0.60;;;;;;;2.47;90.61;102403.03;4910110;29;20060;-73
2023/02/14 03:05:34;;;;;;;0.70;0.70;;;;;;;2.47;90.56;102395.34;4926878;29;20091;-73
2023/02/14 03:07:59;;;;;;;0.50;0.50;;;;;;;2.52;90.56;102403.28;4937599;29;20031;-73
2023/02/14 03:10:29;;;;;;;0.60;0.60;;;;;;;2.54;90.64;102405.94;4947922;29;20063;-74
2023/02/14 03:13:09;;;;;;;0.57;0.57;;;;;;;2.51;90.47;102398.09;4947756;29;20587;-73
2023/02/14 03:16:07;;;;;;;0.50;0.50;;;;;;;2.52;90.39;102413.56;4947887;29;20031;-73
2023/02/14 03:19:02;;;;;;;0.60;0.60;;;;;;;2.50;90.16;102411.69;4964023;29;20519;-73
2023/02/14 03:21:33;;;;;;;0.50;0.50;;;;;;;2.43;90.22;102406.19;4947782;29;20035;-73
2023/02/14 03:24:01;;;;;;;0.70;0.70;;;;;;;2.44;90.23;102410.56;4968890;28;20042;-73
2023/02/14 03:26:36;;;;;;;0.50;0.50;;;;;;;2.44;90.30;102410.56;5059766;28;20025;-73
2023/02/14 03:29:15;;;;;;;0.60;0.60;;;;;;;2.40;90.17;102397.44;5044545;28;20022;-73
2023/02/14 03:31:57;;;;;;;0.50;0.50;;;;;;;2.36;90.20;102401.53;5044369;28;20025;-74
2023/02/14 03:34:57;;;;;;;0.60;0.60;;;;;;;2.33;90.29;102406.47;5062057;28;20032;-74
2023/02/14 03:37:31;;;;;;;0.95;0.95;;;;;;;2.33;90.17;102398.78;5048270;28;20032;-73
2023/02/14 03:40:07;;;;;;;0.82;0.82;;;;;;;2.31;90.42;102410.63;5048039;28;20042;-74
2023/02/14 03:42:39;;;;;;;0.57;0.57;;;;;;;2.32;90.27;102409.81;5048039;28;20108;-74
2023/02/14 03:45:09;;;;;;;0.57;0.57;;;;;;;2.33;90.53;102409.03;5048279;28;20025;-73
2023/02/14 03:47:39;;;;;;;0.52;0.52;;;;;;;2.32;90.29;102394.44;5048065;28;20086;-74
2023/02/14 03:50:18;;;;;;;0.60;0.60;;;;;;;2.34;90.39;102408.22;5063762;28;20033;-72
2023/02/14 03:52:47;;;;;;;0.60;0.60;;;;;;;2.37;90.54;102404.94;5048059;28;20021;-73
2023/02/14 03:55:17;;;;;;;0.98;0.98;;;;;;;2.40;90.46;102395.75;5047816;28;20022;-73
2023/02/14 03:58:03;;;;;;;0.60;0.60;;;;;;;2.39;90.55;102399.13;5048062;28;20101;-72
2023/02/14 04:00:31;;;;;;;0.60;0.60;;;;;;;2.44;90.58;102405.41;5048048;28;20025;-72
2023/02/14 04:03:05;;;;;;;0.60;0.60;;;;;;;2.43;90.65;102411.31;5062999;28;20065;-72
2023/02/14 04:05:32;;;;;;;0.70;0.70;;;;;;;2.42;90.74;102407.00;5046485;28;20060;-73
2023/02/14 04:07:57;;;;;;;0.50;0.50;;;;;;;2.43;90.71;102411.31;5048145;28;20032;-72
2023/02/14 04:10:25;;;;;;;0.50;0.50;;;;;;;2.46;90.65;102410.63;5046375;28;20029;-72
2023/02/14 04:12:52;;;;;;;0.60;0.60;;;;;;;2.51;90.62;102413.47;5063117;28;20049;-73
2023/02/14 04:15:17;;;;;;;0.60;0.60;;;;;;;2.47;90.52;102408.16;5063062;28;20111;-73
2023/02/14 04:20:28;;;;;;;0.90;0.90;;;;;;;2.44;90.58;102395.16;5047578;28;20049;-73
2023/02/14 04:22:53;;;;;;;0.60;0.60;;;;;;;2.52;90.65;102404.97;5047389;28;20072;-72
2023/02/14 04:25:20;;;;;;;0.60;0.60;;;;;;;2.52;90.54;102400.72;5047183;28;20033;-73
2023/02/14 04:27:46;;;;;;;1.35;1.33;;;;;;;2.52;90.69;102402.41;5047453;28;20025;-74
2023/02/14 04:30:12;;;;;;;0.60;0.60;;;;;;;2.48;90.51;102391.97;5047479;28;20024;-73
2023/02/14 04:32:38;;;;;;;0.55;0.55;;;;;;;2.48;90.48;102391.97;5045830;28;20010;-74
2023/02/14 04:35:05;;;;;;;0.50;0.50;;;;;;;2.50;90.79;102392.06;5045883;28;20033;-74
2023/02/14 04:37:30;;;;;;;0.47;0.47;;;;;;;2.57;90.55;102393.31;5062285;28;20466;-74
2023/02/14 04:39:55;;;;;;;0.60;0.60;;;;;;;2.61;90.71;102405.50;5046736;28;20052;-74
2023/02/14 04:42:21;;;;;;;0.50;0.50;;;;;;;2.65;90.75;102404.84;5046864;28;20024;-75
2023/02/14 04:44:46;;;;;;;0.60;0.60;;;;;;;2.72;90.46;102406.09;5045364;28;20021;-74
2023/02/14 04:47:12;;;;;;;0.50;0.50;;;;;;;2.75;90.25;102408.81;5062290;28;20022;-75
2023/02/14 04:49:37;;;;;;;0.80;0.80;;;;;;;2.74;90.30;102401.94;5047119;28;20085;-74
2023/02/14 04:52:03;;;;;;;0.60;0.60;;;;;;;2.78;90.20;102406.44;5046756;28;20040;-75
2023/02/14 04:54:28;;;;;;;0.50;0.50;;;;;;;2.79;89.93;102404.75;5046847;28;20017;-75
2023/02/14 04:56:54;;;;;;;0.50;0.50;;;;;;;2.78;89.87;102405.56;5046869;28;20036;-75
2023/02/14 04:59:19;;;;;;;0.70;0.70;;;;;;;2.73;89.98;102405.31;5047127;28;20033;-75
2023/02/14 05:01:45;;;;;;;0.60;0.60;;;;;;;2.65;89.99;102398.84;5046585;28;20036;-74
2023/02/14 05:04:10;;;;;;;1.20;1.20;;;;;;;2.69;90.09;102401.69;5046820;28;20052;-75
2023/02/14 05:06:36;;;;;;;0.60;0.60;;;;;;;2.77;89.91;102411.47;5046904;28;20474;-72
2023/02/14 05:09:02;;;;;;;0.50;0.50;;;;;;;2.73;89.84;102411.31;5046548;28;20482;-74
2023/02/14 05:11:28;;;;;;;0.60;0.60;;;;;;;2.76;89.78;102405.47;5046810;28;20013;-72
2023/02/14 05:13:54;;;;;;;0.60;0.60;;;;;;;2.78;89.59;102409.00;5046338;28;20076;-72
2023/02/14 05:16:19;;;;;;;0.50;0.50;;;;;;;2.75;89.61;102402.84;5046400;28;20026;-73
2023/02/14 05:18:45;;;;;;;0.50;0.50;;;;;;;2.76;89.71;102410.63;5061867;28;20093;-74
2023/02/14 05:21:10;;;;;;;0.70;0.70;;;;;;;2.75;89.87;102401.13;5061520;28;20509;-73
2023/02/14 05:23:36;;;;;;;0.60;0.60;;;;;;;2.81;89.60;102410.88;5046666;28;20029;-74
2023/02/14 05:26:01;;;;;;;0.50;0.50;;;;;;;2.78;89.88;102409.00;5046313;28;20482;-73
2023/02/14 05:28:27;;;;;;;0.70;0.70;;;;;;;2.82;89.86;102402.38;5046276;28;20062;-73
2023/02/14 05:30:53;;;;;;;0.80;0.80;;;;;;;2.87;89.81;102400.06;5045111;28;20091;-72
2023/02/14 05:33:18;;;;;;;0.60;0.60;;;;;;;2.90;89.89;102413.94;5046176;28;20352;-69
2023/02/14 05:35:44;;;;;;;0.60;0.60;;;;;;;2.91;89.97;102412.25;5046411;28;20022;-70
2023/02/14 05:38:09;;;;;;;0.60;0.60;;;;;;;2.97;89.82;102413.47;5046151;28;20100;-74
2023/02/14 05:40:35;;;;;;;0.50;0.50;;;;;;;2.95;89.78;102409.06;5062031;28;20083;-73
2023/02/14 05:43:00;;;;;;;0.85;0.85;;;;;;;3.02;89.83;102411.16;5046587;28;20030;-74
2023/02/14 05:45:26;;;;;;;5.45;1.95;;;;;;;3.06;89.89;102417.34;5046927;28;20063;-74
2023/02/14 05:47:51;;;;;;;0.70;0.70;;;;;;;3.04;89.76;102418.94;5062574;28;20040;-74
2023/02/14 05:50:17;;;;;;;0.60;0.60;;;;;;;3.07;89.89;102414.88;5045791;28;20067;-72
2023/02/14 05:52:42;;;;;;;0.50;0.50;;;;;;;3.10;89.90;102422.75;5045579;28;20032;-71
2023/02/14 05:55:08;;;;;;;1.55;1.45;;;;;;;3.11;89.93;102408.25;5045751;28;20045;-71
2023/02/14 05:57:34;;;;;;;0.50;0.50;;;;;;;3.18;89.89;102418.03;5043887;28;20021;-71
2023/02/14 05:59:59;;;;;;;0.50;0.50;;;;;;;3.22;89.89;102414.84;5046013;28;20022;-74
2023/02/14 06:02:25;;;;;;;0.52;0.52;;;;;;;3.27;89.76;102415.09;5045536;28;20575;-74
2023/02/14 06:04:50;;;;;;;0.50;0.50;;;;;;;3.30;89.79;102419.50;5063157;28;20025;-73
2023/02/14 06:07:16;;;;;;;0.43;0.43;;;;;;;3.25;89.51;102414.13;5046775;28;20041;-74
2023/02/14 06:09:41;;;;;;;0.60;0.60;;;;;;;3.25;89.71;102418.34;5045453;28;20029;-73
2023/02/14 06:12:07;;;;;;;0.60;0.60;;;;;;;3.27;89.88;102424.47;5045589;28;20021;-74
2023/02/14 06:14:32;;;;;;;0.50;0.50;;;;;;;3.27;89.68;102420.22;5044199;28;20036;-73
2023/02/14 06:16:58;;;;;;;0.57;0.57;;;;;;;3.32;90.22;102431.59;5045418;28;20074;-73
2023/02/14 06:19:23;;;;;;;0.60;0.60;;;;;;;3.33;90.39;102429.94;5045438;28;20025;-73
2023/02/14 06:21:48;;;;;;;0.60;0.60;;;;;;;3.38;90.36;102433.66;5045409;28;20079;-75
2023/02/14 06:24:14;;;;;;;0.57;0.57;;;;;;;3.39;90.68;102434.50;5045361;28;20078;-72
2023/02/14 06:26:39;;;;;;;1.25;1.15;;;;;;;3.41;90.58;102431.25;5045542;28;20390;-73
2023/02/14 06:29:05;;;;;;;0.60;0.60;;;;;;;3.41;90.59;102422.66;5060770;28;20188;-73
2023/02/14 06:31:31;;;;;;;0.50;0.50;;;;;;;3.43;90.65;102424.50;5045323;28;20550;-73
2023/02/14 06:33:56;;;;;;;0.50;0.50;;;;;;;3.47;90.92;102429.00;5045248;28;20060;-73
2023/02/14 06:36:22;;;;;;;1.02;1.02;;;;;;;3.50;91.01;102417.13;5045338;28;20104;-73
2023/02/14 06:38:48;;;;;;;0.50;0.50;;;;;;;3.50;91.18;102428.28;5044958;28;20069;-73
2023/02/14 06:41:16;;;;;;;0.55;0.55;;;;;;;3.48;90.96;102419.63;5044829;28;20053;-73
2023/02/14 06:43:43;;;;;;;1.13;1.13;;;;;;;3.56;91.16;102423.47;5045253;28;20021;-73
2023/02/14 06:46:09;;;;;;;3.28;3.00;;;;;;;3.54;91.29;102417.38;5060534;28;20084;-73
2023/02/14 06:48:34;;;;;;;0.52;0.52;;;;;;;3.58;91.20;102427.00;5043954;28;20022;-73
2023/02/14 06:51:00;;;;;;;0.93;0.93;;;;;;;3.60;91.28;102427.09;5044953;28;20085;-72
2023/02/14 06:53:25;;;;;;;0.50;0.50;;;;;;;3.64;91.33;102434.16;5045318;28;20037;-75
2023/02/14 06:55:51;;;;;;;0.50;0.50;;;;;;;3.67;91.04;102431.75;5045021;28;20021;-73
2023/02/14 06:58:16;;;;;;;0.50;0.50;;;;;;;3.67;91.21;102426.63;5045030;28;20029;-73
2023/02/14 07:00:42;;;;;;;1.30;1.20;;;;;;;3.64;91.53;102426.47;5044791;28;20107;-73
2023/02/14 07:03:07;;;;;;;0.50;0.50;;;;;;;3.65;91.29;102425.66;5044789;28;20025;-73
2023/02/14 07:05:33;;;;;;;1.58;1.48;;;;;;;3.69;91.43;102434.41;5045055;28;20061;-73
2023/02/14 07:07:59;;;;;;;0.60;0.60;;;;;;;3.70;91.36;102425.88;5062126;28;20032;-73
2023/02/14 07:10:25;;;;;;;0.50;0.50;;;;;;;3.64;91.42;102431.59;5049252;28;20079;-73
2023/02/14 07:12:51;;;;;;;0.43;0.43;;;;;;;3.69;91.70;102436.97;5048979;28;20081;-73
2023/02/14 07:15:16;;;;;;;0.63;0.63;;;;;;;3.70;91.22;102437.06;5049137;28;20032;-72
2023/02/14 07:17:42;;;;;;;0.57;0.57;;;;;;;3.72;91.30;102440.56;5064443;28;20026;-72
2023/02/14 07:20:10;;;;;;;0.68;0.68;;;;;;;3.75;91.26;102434.72;5049082;28;20504;-72
2023/02/14 07:22:36;;;;;;;0.50;0.50;;;;;;;3.77;91.39;102439.94;5048520;28;20055;-73
2023/02/14 07:25:03;;;;;;;0.50;0.50;;;;;;;3.79;91.52;102440.88;5048730;28;20029;-72
2023/02/14 07:27:29;;;;;;;0.55;0.55;;;;;;;3.82;91.44;102438.47;5048672;28;20025;-72
2023/02/14 07:29:54;;;;;;;0.50;0.50;;;;;;;3.77;91.23;102427.09;5048626;28;20040;-72
2023/02/14 07:32:20;;;;;;;0.40;0.40;;;;;;;3.83;91.09;102430.00;5048587;28;20017;-73
2023/02/14 07:34:46;;;;;;;0.70;0.65;;;;;;;3.86;91.24;102443.00;5063919;28;20037;-71
2023/02/14 07:37:12;;;;;;;0.50;0.50;;;;;;;3.88;91.15;102440.50;5048650;28;20025;-72
2023/02/14 07:39:37;;;;;;;2.15;2.05;;;;;;;3.89;91.08;102435.44;5048212;28;20250;-72
2023/02/14 07:42:02;;;;;;;0.50;0.50;;;;;;;3.86;90.88;102426.69;5048270;28;20077;-71
2023/02/14 07:44:28;;;;;;;0.50;0.50;;;;;;;3.89;90.65;102435.44;5048572;28;20084;-72
2023/02/14 07:46:53;;;;;;;0.68;0.68;;;;;;;3.90;90.68;102439.78;5048433;28;20021;-73
2023/02/14 07:49:19;;;;;;;0.50;0.50;;;;;;;3.94;90.53;102441.72;5048437;28;20026;-71
2023/02/14 07:51:44;;;;;;;0.60;0.60;;;;;;;3.93;90.39;102442.50;5063581;28;20044;-72
2023/02/14 07:54:09;;;;;;;1.08;0.98;;;;;;;3.96;90.40;102437.53;5048013;28;20506;-71
2023/02/14 07:56:35;;;;;;;2.78;2.67;;;;;;;4.02;90.27;102444.69;5048367;28;20025;-71
2023/02/14 07:59:00;;;;;;;0.47;0.47;;;;;;;4.05;90.11;102439.69;5048261;28;20021;-72
2023/02/14 08:01:26;;;;;;;0.50;0.50;;;;;;;4.08;89.94;102445.00;5046752;28;20025;-72
2023/02/14 08:03:54;;;;;;;0.70;0.70;;;;;;;4.09;89.98;102448.44;5047999;28;20489;-73
2023/02/14 08:06:20;;;;;;;0.50;0.50;;;;;;;4.07;89.66;102440.63;5048287;28;20053;-72
2023/02/14 08:08:46;;;;;;;0.82;0.82;;;;;;;4.12;89.42;102448.59;5048162;28;20048;-72
2023/02/14 08:12:57;;;;;;;0.50;0.50;;;;;;;4.18;89.19;102441.22;5047571;28;20018;-71
2023/02/14 08:13:57;;;;;;;0.50;0.50;;;;;;;4.16;89.05;102442.81;5047665;28;20118;-72
2023/02/14 08:16:22;;;;;;;0.50;0.50;;;;;;;4.19;88.84;102449.78;5046587;28;20025;-73
2023/02/14 08:18:47;;;;;;;0.65;0.65;;;;;;;4.20;88.80;102439.59;5047559;28;20041;-73
2023/02/14 08:21:15;;;;;;;2.78;2.58;;;;;;;4.22;88.26;102439.66;5047068;28;20140;-72
2023/02/14 08:23:40;;;;;;;0.50;0.50;;;;;;;4.24;88.12;102442.31;5047790;28;20022;-74
2023/02/14 08:26:06;;;;;;;0.52;0.52;;;;;;;4.29;87.98;102440.88;5062872;28;20035;-74
2023/02/14 08:28:31;;;;;;;0.50;0.50;;;;;;;4.34;87.62;102454.84;5047384;28;20089;-74
2023/02/14 08:30:57;;;;;;;0.50;0.50;;;;;;;4.36;87.78;102442.91;5047380;28;20025;-75
2023/02/14 08:33:23;;;;;;;0.50;0.50;;;;;;;4.41;87.74;102438.03;5047596;28;20048;-74
2023/02/14 08:35:50;;;;;;;0.50;0.50;;;;;;;4.40;87.55;102442.28;5047536;28;20033;-74
2023/02/14 08:38:15;;;;;;;0.50;0.50;;;;;;;4.42;87.13;102445.84;5047276;28;20246;-74
2023/02/14 08:40:41;;;;;;;0.50;0.50;;;;;;;4.44;86.41;102443.34;5047473;28;20047;-75
2023/02/14 08:43:07;;;;;;;0.73;0.73;;;;;;;4.47;86.56;102449.50;5047299;28;20036;-75
2023/02/14 08:45:33;;;;;;;0.60;0.60;;;;;;;4.52;86.30;102454.00;5047355;28;20057;-75
2023/02/14 08:48:10;;;;;;;0.50;0.50;;;;;;;4.54;86.44;102454.94;5047297;28;20049;-75
2023/02/14 08:50:36;;;;;;;0.50;0.50;;;;;;;4.55;86.12;102449.00;5045894;28;20175;-75
2023/02/14 08:53:07;;;;;;;0.50;0.50;;;;;;;4.60;85.91;102447.53;5046878;28;20246;-74
2023/02/14 08:55:33;;;;;;;0.50;0.50;;;;;;;4.59;85.67;102445.78;5047028;28;20056;-75
2023/02/14 08:57:59;;;;;;;0.40;0.40;;;;;;;4.64;85.38;102449.47;5047221;28;20025;-76
2023/02/14 09:00:25;;;;;;;0.73;0.70;;;;;;;4.61;85.58;102457.03;5047127;28;20481;-76
2023/02/14 09:02:51;;;;;;;0.50;0.50;;;;;;;4.64;85.21;102449.47;5045538;28;20025;-76
2023/02/14 09:05:18;;;;;;;0.50;0.50;;;;;;;4.75;85.76;102454.25;5047239;28;20555;-75
2023/02/14 09:07:43;;;;;;;0.50;0.50;;;;;;;4.76;85.60;102459.47;5048913;28;20036;-74
2023/02/14 09:10:09;;;;;;;0.50;0.50;;;;;;;4.73;85.11;102455.88;5046835;28;20026;-75
2023/02/14 09:12:38;;;;;;;0.50;0.50;;;;;;;4.73;84.48;102455.88;5062166;28;20031;-76
2023/02/14 09:15:04;;;;;;;0.50;0.50;;;;;;;4.74;84.60;102447.34;5062524;28;20112;-76
2023/02/14 09:17:29;;;;;;;0.50;0.50;;;;;;;4.75;84.10;102455.13;5045705;28;20044;-76
2023/02/14 09:19:55;;;;;;;0.50;0.50;;;;;;;4.79;83.76;102464.75;5062122;28;20033;-75
2023/02/14 09:22:20;;;;;;;0.50;0.50;;;;;;;4.81;84.10;102462.25;5046716;28;20033;-76
2023/02/14 09:24:46;;;;;;;0.50;0.50;;;;;;;4.77;83.55;102450.06;5046573;28;20056;-76
2023/02/14 09:27:11;;;;;;;0.85;0.85;;;;;;;4.82;83.48;102457.19;5062034;28;20021;-77
2023/02/14 09:29:37;;;;;;;0.50;0.50;;;;;;;4.79;83.70;102453.59;5046682;28;20026;-76
2023/02/14 09:32:03;;;;;;;0.50;0.50;;;;;;;4.83;83.80;102453.81;5045435;28;20094;-76
2023/02/14 09:37:14;;;;;;;0.50;0.50;;;;;;;4.81;82.39;102439.97;5046508;28;20109;-75
2023/02/14 09:39:39;;;;;;;0.50;0.50;;;;;;;4.86;83.05;102447.06;5045745;28;20046;-77
2023/02/14 09:42:35;;;;;;;0.50;0.50;;;;;;;4.82;82.70;102443.44;5046003;28;20084;-75
2023/02/14 09:45:10;;;;;;;0.50;0.50;;;;;;;4.90;82.26;102449.88;5046252;28;20042;-76
2023/02/14 09:47:47;;;;;;;0.50;0.50;;;;;;;4.86;82.70;102441.91;5046265;28;20052;-75
2023/02/14 09:50:29;;;;;;;2.35;2.25;;;;;;;4.93;82.49;102454.25;5061572;28;20052;-76
2023/02/14 09:53:01;;;;;;;0.60;0.60;;;;;;;4.95;83.04;102443.22;5045970;28;20067;-76
2023/02/14 09:55:52;;;;;;;0.50;0.50;;;;;;;4.95;82.69;102445.78;5045928;28;20033;-75
2023/02/14 09:58:44;;;;;;;0.50;0.50;;;;;;;4.99;82.18;102449.41;5045607;28;20284;-75
2023/02/14 10:01:19;;;;;;;1.13;1.13;;;;;;;4.99;81.67;102446.84;5061227;28;20052;-75
2023/02/14 10:04:00;;;;;;;0.93;0.88;;;;;;;4.96;82.21;102450.16;5044645;28;20025;-77
2023/02/14 10:07:01;;;;;;;0.50;0.50;;;;;;;5.07;82.37;102444.63;5045828;28;20040;-76
2023/02/14 10:10:01;;;;;;;0.40;0.40;;;;;;;5.07;82.58;102448.09;5045711;28;20025;-75
2023/02/14 10:12:51;;;;;;;0.50;0.50;;;;;;;5.03;81.63;102455.59;5045664;28;20056;-75
2023/02/14 10:15:21;;;;;;;0.50;0.50;;;;;;;5.04;81.87;102458.25;5045747;28;20037;-75
2023/02/14 10:18:09;;;;;;;2.00;1.95;;;;;;;5.07;81.92;102458.38;5044444;28;20059;-75
2023/02/14 10:20:40;;;;;;;0.43;0.43;;;;;;;5.05;82.26;102451.38;5045579;28;20045;-76
2023/02/14 10:23:21;;;;;;;0.50;0.50;;;;;;;5.09;81.97;102461.03;5043959;28;20033;-75
2023/02/14 10:26:13;;;;;;;1.05;1.05;;;;;;;5.07;81.27;102462.63;5060668;28;20408;-74
2023/02/14 10:28:44;;;;;;;5.07;4.78;;;;;;;5.11;81.86;102459.41;5045650;28;20040;-76
2023/02/14 10:31:23;;;;;;;0.50;0.50;;;;;;;5.08;81.42;102462.72;5045451;28;20049;-76
2023/02/14 10:33:51;;;;;;;0.40;0.40;;;;;;;5.04;81.01;102467.66;5045715;28;20104;-76
2023/02/14 10:36:25;;;;;;;0.60;0.60;;;;;;;5.00;81.00;102464.03;5045639;28;20021;-76
2023/02/14 10:39:02;;;;;;;0.50;0.50;;;;;;;5.05;80.75;102464.25;5045228;28;20079;-74
2023/02/14 10:41:48;;;;;;;0.50;0.50;;;;;;;5.00;80.40;102465.75;5045006;28;20018;-74
2023/02/14 10:44:25;;;;;;;1.35;1.35;;;;;;;5.03;80.91;102460.75;5045105;28;20022;-76
2023/02/14 10:47:02;;;;;;;0.50;0.50;;;;;;;5.04;80.51;102465.06;5060532;28;20056;-75
2023/02/14 10:50:04;;;;;;;0.50;0.50;;;;;;;5.03;80.23;102459.03;5045189;28;20397;-76
2023/02/14 10:53:05;;;;;;;0.77;0.77;;;;;;;5.02;80.53;102444.41;5045293;28;20028;-77
2023/02/14 10:56:02;;;;;;;0.50;0.50;;;;;;;4.99;79.73;102451.97;5030831;28;20297;-75
2023/02/14 10:58:32;;;;;;;0.73;0.73;;;;;;;4.89;79.19;102444.63;5060585;28;20049;-76
2023/02/14 11:01:07;;;;;;;0.50;0.50;;;;;;;4.95;79.82;102455.22;5045014;28;20029;-76
2023/02/14 11:03:35;;;;;;;5.35;4.90;;;;;;;5.01;79.59;102452.06;5060335;28;20022;-75
2023/02/14 11:06:01;;;;;;;0.50;0.50;;;;;;;4.93;79.81;102444.84;5045096;28;20120;-75
2023/02/14 11:08:32;;;;;;;0.50;0.50;;;;;;;4.96;79.51;102455.31;5060524;28;20068;-77
2023/02/14 11:11:26;;;;;;;0.50;0.50;;;;;;;5.06;79.67;102461.75;5044849;28;20032;-75
2023/02/14 11:13:52;;;;;;;0.50;0.50;;;;;;;5.01;79.63;102450.38;5060105;28;20036;-76
2023/02/14 11:16:29;;;;;;;0.50;0.50;;;;;;;5.06;79.09;102446.28;5060219;28;20029;-76
2023/02/14 11:19:14;;;;;;;0.50;0.50;;;;;;;5.12;78.76;102445.72;5044971;28;20026;-75
2023/02/14 11:21:44;;;;;;;0.40;0.40;;;;;;;5.01;79.00;102434.03;5044825;28;20367;-75
2023/02/14 11:24:25;;;;;;;0.50;0.50;;;;;;;5.09;78.44;102445.59;5044978;28;20026;-75
2023/02/14 11:26:51;;;;;;;1.17;1.17;;;;;;;5.11;78.85;102451.69;5060157;28;20025;-74
2023/02/14 11:29:26;;;;;;;0.90;0.90;;;;;;;5.04;78.06;102449.63;5059967;28;20446;-75
2023/02/14 11:31:52;;;;;;;0.50;0.50;;;;;;;4.98;77.83;102444.19;5043517;28;20018;-74
2023/02/14 11:34:32;;;;;;;0.57;0.57;;;;;;;5.09;77.85;102440.44;5044939;28;20206;-74
2023/02/14 11:36:59;;;;;;;0.47;0.47;;;;;;;5.14;78.52;102446.69;5059846;28;20041;-76
2023/02/14 11:39:34;;;;;;;0.50;0.50;;;;;;;5.13;78.51;102436.31;5059594;28;20068;-74
2023/02/14 11:42:03;;;;;;;2.17;2.05;;;;;;;5.12;77.50;102427.69;5044490;28;20061;-74
2023/02/14 11:44:31;;;;;;;0.50;0.50;;;;;;;5.12;77.74;102421.66;5043261;28;20026;-75
2023/02/14 11:47:16;;;;;;;0.80;0.80;;;;;;;5.10;77.50;102424.16;5059934;28;20022;-74
2023/02/14 11:49:54;;;;;;;0.50;0.50;;;;;;;5.13;77.30;102426.03;5044707;28;20287;-74
2023/02/14 11:52:25;;;;;;;0.40;0.40;;;;;;;5.17;77.55;102421.09;5059809;28;20017;-75
2023/02/14 11:54:52;;;;;;;0.50;0.50;;;;;;;5.22;77.81;102411.00;5060969;28;20072;-75
2023/02/14 11:57:38;;;;;;;0.50;0.50;;;;;;;5.19;77.37;102411.72;5063516;28;20021;-76
2023/02/14 12:00:17;;;;;;;0.50;0.50;;;;;;;5.21;76.93;102417.81;5048062;28;20048;-75
2023/02/14 12:02:46;;;;;;;0.98;0.98;;;;;;;5.15;76.80;102408.94;5063451;28;20075;-76
2023/02/14 12:05:16;;;;;;;0.50;0.50;;;;;;;5.14;76.95;102410.63;5050281;28;20029;-74
2023/02/14 12:07:45;;;;;;;0.60;0.60;;;;;;;5.12;77.34;102408.78;5049899;28;20082;-76
2023/02/14 12:10:16;;;;;;;0.50;0.50;;;;;;;5.18;77.16;102411.66;5047828;28;20025;-75